sensor_id;sensor_type;location;lat;lon;timestamp;pressure;altitude;pressure_sealevel;temperature;humidity
6413;BME280;3239;48.714;9.472;2023-01-29T00:02:21;99396.41;;;0.47;100.00
6413;BME280;3239;48.714;9.472;2023-01-29T00:04:47;99390.03;;;0.41;100.00
6413;BME280;3239;48.714;9.472;2023-01-29T00:07:13;99385.28;;;0.45;100.00
6413;BME280;3239;48.714;9.472;2023-01-29T00:09:39;99384.09;;;0.46;100.00
6413;BME280;3239;48.714;9.472;2023-01-29T00:12:05;99383.13;;;0.40;100.00
6413;BME280;3239;48.714;9.472;2023-01-29T00:14:33;99385.16;;;0.36;100.00
6413;BME280;3239;48.714;9.472;2023-01-29T00:16:59;99385.91;;;0.36;100.00
6413;BME280;3239;48.714;9.472;2023-01-29T00:19:25;99390.03;;;0.41;100.00
6413;BME280;3239;48.714;9.472;2023-01-29T00:21:51;99393.28;;;0.48;100.00
6413;BME280;3239;48.714;9.472;2023-01-29T00:24:17;99408.63;;;0.51;100.00
6413;BME280;3239;48.714;9.472;2023-01-29T00:26:43;99394.38;;;0.51;100.00
6413;BME280;3239;48.714;9.472;2023-01-29T00:29:09;99392.75;;;0.53;100.00
6413;BME280;3239;48.714;9.472;2023-01-29T00:31:34;99383.84;;;0.56;100.00
6413;BME280;3239;48.714;9.472;2023-01-29T00:34:00;99380.38;;;0.56;100.00
6413;BME280;3239;48.714;9.472;2023-01-29T00:36:26;99387.25;;;0.57;100.00
6413;BME280;3239;48.714;9.472;2023-01-29T00:38:57;99392.25;;;0.58;100.00
6413;BME280;3239;48.714;9.472;2023-01-29T00:41:27;99380.38;;;0.56;100.00
6413;BME280;3239;48.714;9.472;2023-01-29T00:44:12;99380.38;;;0.56;100.00
6413;BME280;3239;48.714;9.472;2023-01-29T00:46:57;99374.56;;;0.57;100.00
6413;BME280;3239;48.714;9.472;2023-01-29T00:49:22;99379.63;;;0.55;100.00
6413;BME280;3239;48.714;9.472;2023-01-29T00:51:48;99385.22;;;0.61;100.00
6413;BME280;3239;48.714;9.472;2023-01-29T00:54:34;99373.25;;;0.62;100.00
6413;BME280;3239;48.714;9.472;2023-01-29T00:57:01;99374.88;;;0.59;100.00
6413;BME280;3239;48.714;9.472;2023-01-29T00:59:27;99373.59;;;0.64;100.00
6413;BME280;3239;48.714;9.472;2023-01-29T01:01:53;99375.97;;;0.62;100.00
6413;BME280;3239;48.714;9.472;2023-01-29T01:04:38;99382.31;;;0.55;100.00
6413;BME280;3239;48.714;9.472;2023-01-29T01:07:03;99372.94;;;0.60;100.00
6413;BME280;3239;48.714;9.472;2023-01-29T01:09:29;99380.25;;;0.59;100.00
6413;BME280;3239;48.714;9.472;2023-01-29T01:12:13;99354.97;;;0.41;100.00
6413;BME280;3239;48.714;9.472;2023-01-29T01:14:39;99368.81;;;0.43;100.00
6413;BME280;3239;48.714;9.472;2023-01-29T01:17:07;99366.84;;;0.43;100.00
6413;BME280;3239;48.714;9.472;2023-01-29T01:19:34;99371.81;;;0.45;100.00
6413;BME280;3239;48.714;9.472;2023-01-29T01:22:00;99382.19;;;0.46;100.00
6413;BME280;3239;48.714;9.472;2023-01-29T01:24:25;99369.63;;;0.40;100.00
6413;BME280;3239;48.714;9.472;2023-01-29T01:26:51;99375.56;;;0.35;100.00
6413;BME280;3239;48.714;9.472;2023-01-29T01:29:17;99372.53;;;0.33;100.00
6413;BME280;3239;48.714;9.472;2023-01-29T01:31:42;99371.91;;;0.41;100.00
6413;BME280;3239;48.714;9.472;2023-01-29T01:34:08;99364.34;;;0.36;100.00
6413;BME280;3239;48.714;9.472;2023-01-29T01:36:34;99362.84;;;0.35;100.00
6413;BME280;3239;48.714;9.472;2023-01-29T01:39:00;99365.13;;;0.37;100.00
6413;BME280;3239;48.714;9.472;2023-01-29T01:41:25;99372.75;;;0.38;100.00
6413;BME280;3239;48.714;9.472;2023-01-29T01:43:57;99372.03;;;0.38;100.00
6413;BME280;3239;48.714;9.472;2023-01-29T01:46:28;99371.16;;;0.41;100.00
6413;BME280;3239;48.714;9.472;2023-01-29T01:49:13;99371.06;;;0.44;100.00
6413;BME280;3239;48.714;9.472;2023-01-29T01:51:48;99368.28;;;0.48;100.00
6413;BME280;3239;48.714;9.472;2023-01-29T01:54:25;99370.72;;;0.42;100.00
6413;BME280;3239;48.714;9.472;2023-01-29T01:56:58;99366.44;;;0.45;100.00
6413;BME280;3239;48.714;9.472;2023-01-29T01:59:35;99368.19;;;0.51;100.00
6413;BME280;3239;48.714;9.472;2023-01-29T02:02:02;99370.53;;;0.49;100.00
6413;BME280;3239;48.714;9.472;2023-01-29T02:04:47;99368.28;;;0.48;100.00
6413;BME280;3239;48.714;9.472;2023-01-29T02:07:33;99367.38;;;0.38;100.00
6413;BME280;3239;48.714;9.472;2023-01-29T02:10:18;99367.81;;;0.37;100.00
6413;BME280;3239;48.714;9.472;2023-01-29T02:12:45;99368.22;;;0.35;100.00
6413;BME280;3239;48.714;9.472;2023-01-29T02:15:12;99367.16;;;0.33;100.00
6413;BME280;3239;48.714;9.472;2023-01-29T02:17:38;99363.47;;;0.39;100.00
6413;BME280;3239;48.714;9.472;2023-01-29T02:41:27;99385.75;;;0.56;100.00
6413;BME280;3239;48.714;9.472;2023-01-29T02:56:18;99390.41;;;0.55;100.00
6413;BME280;3239;48.714;9.472;2023-01-29T02:58:52;99386.94;;;0.55;100.00
6413;BME280;3239;48.714;9.472;2023-01-29T03:04:07;99380.66;;;0.45;100.00
6413;BME280;3239;48.714;9.472;2023-01-29T03:07:08;99378.72;;;0.46;100.00
6413;BME280;3239;48.714;9.472;2023-01-29T03:09:57;99376.03;;;0.46;100.00
6413;BME280;3239;48.714;9.472;2023-01-29T03:12:27;99378.97;;;0.51;100.00
6413;BME280;3239;48.714;9.472;2023-01-29T03:15:08;99363.44;;;0.55;100.00
6413;BME280;3239;48.714;9.472;2023-01-29T03:20:27;99362.66;;;0.42;100.00
6413;BME280;3239;48.714;9.472;2023-01-29T03:23:01;99356.38;;;0.33;100.00
6413;BME280;3239;48.714;9.472;2023-01-29T03:25:29;99351.91;;;0.26;100.00
6413;BME280;3239;48.714;9.472;2023-01-29T03:28:17;99358.91;;;0.24;100.00
6413;BME280;3239;48.714;9.472;2023-01-29T03:31:07;99366.38;;;0.32;100.00
6413;BME280;3239;48.714;9.472;2023-01-29T03:34:20;99381.50;;;0.42;100.00
6413;BME280;3239;48.714;9.472;2023-01-29T03:37:07;99381.50;;;0.42;100.00
6413;BME280;3239;48.714;9.472;2023-01-29T03:39:35;99380.66;;;0.45;100.00
6413;BME280;3239;48.714;9.472;2023-01-29T03:44:57;99370.31;;;0.44;100.00
6413;BME280;3239;48.714;9.472;2023-01-29T03:47:42;99380.66;;;0.45;100.00
6413;BME280;3239;48.714;9.472;2023-01-29T03:50:46;99374.50;;;0.45;100.00
6413;BME280;3239;48.714;9.472;2023-01-29T03:54:07;99376.69;;;0.50;100.00
6413;BME280;3239;48.714;9.472;2023-01-29T03:56:58;99374.00;;;0.50;100.00
6413;BME280;3239;48.714;9.472;2023-01-29T04:02:50;99378.63;;;0.49;100.00
6413;BME280;3239;48.714;9.472;2023-01-29T04:05:24;99372.25;;;0.43;100.00
6413;BME280;3239;48.714;9.472;2023-01-29T04:08:00;99379.47;;;0.46;100.00
6413;BME280;3239;48.714;9.472;2023-01-29T04:10:28;99382.50;;;0.48;100.00
6413;BME280;3239;48.714;9.472;2023-01-29T04:13:03;99381.75;;;0.48;100.00
6413;BME280;3239;48.714;9.472;2023-01-29T04:15:33;99382.19;;;0.46;100.00
6413;BME280;3239;48.714;9.472;2023-01-29T04:18:02;99381.41;;;0.46;100.00
6413;BME280;3239;48.714;9.472;2023-01-29T04:20:29;99370.31;;;0.44;100.00
6413;BME280;3239;48.714;9.472;2023-01-29T04:22:54;99386.13;;;0.42;100.00
6413;BME280;3239;48.714;9.472;2023-01-29T04:25:33;99377.63;;;0.43;100.00
6413;BME280;3239;48.714;9.472;2023-01-29T04:28:24;99372.59;;;0.45;100.00
6413;BME280;3239;48.714;9.472;2023-01-29T04:30:58;99373.00;;;0.44;100.00
6413;BME280;3239;48.714;9.472;2023-01-29T04:33:43;99369.88;;;0.45;100.00
6413;BME280;3239;48.714;9.472;2023-01-29T04:37:01;99369.88;;;0.45;100.00
6413;BME280;3239;48.714;9.472;2023-01-29T04:39:38;99369.88;;;0.45;100.00
6413;BME280;3239;48.714;9.472;2023-01-29T04:42:31;99377.06;;;0.36;100.00
6413;BME280;3239;48.714;9.472;2023-01-29T04:48:27;99369.63;;;0.40;100.00
6413;BME280;3239;48.714;9.472;2023-01-29T04:51:16;99373.84;;;0.41;100.00
6413;BME280;3239;48.714;9.472;2023-01-29T04:56:48;99370.94;;;0.35;100.00
6413;BME280;3239;48.714;9.472;2023-01-29T04:59:31;99358.03;;;0.14;100.00
6413;BME280;3239;48.714;9.472;2023-01-29T05:02:00;99348.75;;;0.15;100.00
6413;BME280;3239;48.714;9.472;2023-01-29T05:04:29;99360.19;;;0.19;100.00
6413;BME280;3239;48.714;9.472;2023-01-29T05:07:01;99362.13;;;0.19;100.00
6413;BME280;3239;48.714;9.472;2023-01-29T05:09:29;99373.31;;;0.17;100.00
6413;BME280;3239;48.714;9.472;2023-01-29T05:11:56;99382.38;;;0.11;100.00
6413;BME280;3239;48.714;9.472;2023-01-29T05:14:23;99384.47;;;0.03;100.00
6413;BME280;3239;48.714;9.472;2023-01-29T05:16:52;99379.22;;;0.12;100.00
6413;BME280;3239;48.714;9.472;2023-01-29T05:19:20;99384.34;;;0.23;100.00
6413;BME280;3239;48.714;9.472;2023-01-29T05:21:48;99380.25;;;0.18;100.00
6413;BME280;3239;48.714;9.472;2023-01-29T05:24:19;99383.59;;;0.22;100.00
6413;BME280;3239;48.714;9.472;2023-01-29T05:26:48;99379.91;;;0.16;100.00
6413;BME280;3239;48.714;9.472;2023-01-29T05:29:33;99382.94;;;0.18;100.00
6413;BME280;3239;48.714;9.472;2023-01-29T05:31:59;99378.28;;;0.19;100.00
6413;BME280;3239;48.714;9.472;2023-01-29T05:34:25;99374.50;;;0.16;100.00
6413;BME280;3239;48.714;9.472;2023-01-29T05:36:51;99374.00;;;0.21;100.00
6413;BME280;3239;48.714;9.472;2023-01-29T05:39:17;99379.19;;;0.28;100.00
6413;BME280;3239;48.714;9.472;2023-01-29T05:41:42;99382.31;;;0.27;100.00
6413;BME280;3239;48.714;9.472;2023-01-29T05:44:11;99378.78;;;0.30;100.00
6413;BME280;3239;48.714;9.472;2023-01-29T05:46:38;99364.44;;;0.33;100.00
6413;BME280;3239;48.714;9.472;2023-01-29T05:49:04;99361.75;;;0.33;100.00
6413;BME280;3239;48.714;9.472;2023-01-29T05:51:30;99362.50;;;0.33;100.00
6413;BME280;3239;48.714;9.472;2023-01-29T05:53:56;99361.75;;;0.33;100.00
6413;BME280;3239;48.714;9.472;2023-01-29T05:56:22;99361.50;;;0.27;100.00
6413;BME280;3239;48.714;9.472;2023-01-29T05:58:47;99354.94;;;0.28;100.00
6413;BME280;3239;48.714;9.472;2023-01-29T06:01:20;99342.94;;;0.17;100.00
6413;BME280;3239;48.714;9.472;2023-01-29T06:03:46;99339.69;;;0.09;100.00
6413;BME280;3239;48.714;9.472;2023-01-29T06:06:12;99329.41;;;0.04;100.00
6413;BME280;3239;48.714;9.472;2023-01-29T06:08:38;99306.69;;;0.05;100.00
6413;BME280;3239;48.714;9.472;2023-01-29T06:11:08;99302.13;;;0.02;100.00
6413;BME280;3239;48.714;9.472;2023-01-29T06:13:34;99293.22;;;0.05;100.00
6413;BME280;3239;48.714;9.472;2023-01-29T06:16:00;99292.63;;;-0.02;100.00
6413;BME280;3239;48.714;9.472;2023-01-29T06:18:25;99293.50;;;-0.05;100.00
6413;BME280;3239;48.714;9.472;2023-01-29T06:20:51;99277.34;;;-0.05;100.00
6413;BME280;3239;48.714;9.472;2023-01-29T06:23:17;99281.44;;;-0.01;100.00
6413;BME280;3239;48.714;9.472;2023-01-29T06:25:42;99279.31;;;0.07;100.00
6413;BME280;3239;48.714;9.472;2023-01-29T06:28:08;99276.94;;;0.09;100.00
6413;BME280;3239;48.714;9.472;2023-01-29T06:30:34;99301.81;;;0.00;100.00
6413;BME280;3239;48.714;9.472;2023-01-29T06:33:00;99287.94;;;0.02;100.00
6413;BME280;3239;48.714;9.472;2023-01-29T06:35:28;99291.81;;;0.01;100.00
6413;BME280;3239;48.714;9.472;2023-01-29T06:37:55;99296.66;;;0.06;100.00
6413;BME280;3239;48.714;9.472;2023-01-29T06:40:21;99294.41;;;0.04;100.00
6413;BME280;3239;48.714;9.472;2023-01-29T06:42:47;99300.44;;;0.08;100.00
6413;BME280;3239;48.714;9.472;2023-01-29T06:45:13;99302.09;;;0.18;100.00
6413;BME280;3239;48.714;9.472;2023-01-29T06:47:38;99295.94;;;0.18;100.00
6413;BME280;3239;48.714;9.472;2023-01-29T06:50:05;99305.53;;;0.19;100.00
6413;BME280;3239;48.714;9.472;2023-01-29T06:52:30;99308.22;;;0.19;100.00
6413;BME280;3239;48.714;9.472;2023-01-29T06:54:56;99329.38;;;0.20;100.00
6413;BME280;3239;48.714;9.472;2023-01-29T06:57:22;99338.53;;;0.23;100.00
6413;BME280;3239;48.714;9.472;2023-01-29T06:59:48;99334.50;;;0.15;100.00
6413;BME280;3239;48.714;9.472;2023-01-29T07:02:14;99334.19;;;0.13;100.00
6413;BME280;3239;48.714;9.472;2023-01-29T07:04:40;99334.84;;;0.17;100.00
6413;BME280;3239;48.714;9.472;2023-01-29T07:07:07;99348.56;;;0.22;100.00
6413;BME280;3239;48.714;9.472;2023-01-29T07:09:39;99346.22;;;0.24;100.00
6413;BME280;3239;48.714;9.472;2023-01-29T07:12:06;99354.28;;;0.24;100.00
6413;BME280;3239;48.714;9.472;2023-01-29T07:14:32;99359.16;;;0.29;100.00
6413;BME280;3239;48.714;9.472;2023-01-29T07:16:58;99356.13;;;0.27;100.00
6413;BME280;3239;48.714;9.472;2023-01-29T07:19:24;99347.19;;;0.30;100.00
6413;BME280;3239;48.714;9.472;2023-01-29T07:21:49;99347.94;;;0.31;100.00
6413;BME280;3239;48.714;9.472;2023-01-29T07:24:15;99350.09;;;0.36;100.00
6413;BME280;3239;48.714;9.472;2023-01-29T07:26:41;99350.09;;;0.36;100.00
6413;BME280;3239;48.714;9.472;2023-01-29T07:29:07;99354.56;;;0.42;100.00
6413;BME280;3239;48.714;9.472;2023-01-29T07:31:33;99340.41;;;0.38;100.00
6413;BME280;3239;48.714;9.472;2023-01-29T07:33:59;99343.22;;;0.35;100.00
6413;BME280;3239;48.714;9.472;2023-01-29T07:36:24;99343.41;;;0.28;100.00
6413;BME280;3239;48.714;9.472;2023-01-29T07:38:51;99345.84;;;0.22;100.00
6413;BME280;3239;48.714;9.472;2023-01-29T07:41:17;99348.19;;;0.08;100.00
6413;BME280;3239;48.714;9.472;2023-01-29T07:43:43;99363.72;;;0.16;100.00
6413;BME280;3239;48.714;9.472;2023-01-29T07:46:08;99360.31;;;0.28;100.00
6413;BME280;3239;48.714;9.472;2023-01-29T07:48:35;99364.09;;;0.31;100.00
6413;BME280;3239;48.714;9.472;2023-01-29T07:51:01;99359.94;;;0.42;100.00
6413;BME280;3239;48.714;9.472;2023-01-29T07:53:27;99351.84;;;0.42;100.00
6413;BME280;3239;48.714;9.472;2023-01-29T07:55:53;99360.78;;;0.39;100.00
6413;BME280;3239;48.714;9.472;2023-01-29T07:58:19;99364.28;;;0.52;100.00
6413;BME280;3239;48.714;9.472;2023-01-29T08:00:45;99364.19;;;0.56;100.00
6413;BME280;3239;48.714;9.472;2023-01-29T08:03:14;99376.38;;;0.60;100.00
6413;BME280;3239;48.714;9.472;2023-01-29T08:05:42;99365.06;;;0.53;100.00
6413;BME280;3239;48.714;9.472;2023-01-29T08:08:08;99371.06;;;0.44;100.00
6413;BME280;3239;48.714;9.472;2023-01-29T08:10:38;99370.84;;;0.39;100.00
6413;BME280;3239;48.714;9.472;2023-01-29T08:13:05;99378.97;;;0.23;100.00
6413;BME280;3239;48.714;9.472;2023-01-29T08:15:32;99372.81;;;0.22;100.00
6413;BME280;3239;48.714;9.472;2023-01-29T08:17:58;99378.06;;;0.13;100.00
6413;BME280;3239;48.714;9.472;2023-01-29T08:20:25;99368.44;;;0.12;100.00
6413;BME280;3239;48.714;9.472;2023-01-29T08:23:01;99374.44;;;0.04;100.00
6413;BME280;3239;48.714;9.472;2023-01-29T08:25:28;99369.00;;;-0.09;100.00
6413;BME280;3239;48.714;9.472;2023-01-29T08:27:56;99367.22;;;0.01;100.00
6413;BME280;3239;48.714;9.472;2023-01-29T08:30:23;99377.19;;;0.16;100.00
6413;BME280;3239;48.714;9.472;2023-01-29T08:32:48;99385.28;;;0.16;100.00
6413;BME280;3239;48.714;9.472;2023-01-29T08:35:14;99388.41;;;0.15;100.00
6413;BME280;3239;48.714;9.472;2023-01-29T08:37:40;99399.34;;;0.24;100.00
6413;BME280;3239;48.714;9.472;2023-01-29T08:40:07;99401.66;;;0.38;100.00
6413;BME280;3239;48.714;9.472;2023-01-29T08:42:35;99398.09;;;0.41;100.00
6413;BME280;3239;48.714;9.472;2023-01-29T08:45:00;99383.38;;;0.45;100.00
6413;BME280;3239;48.714;9.472;2023-01-29T08:47:26;99383.94;;;0.53;100.00
6413;BME280;3239;48.714;9.472;2023-01-29T08:49:52;99385.03;;;0.55;100.00
6413;BME280;3239;48.714;9.472;2023-01-29T08:52:18;99383.72;;;0.60;100.00
6413;BME280;3239;48.714;9.472;2023-01-29T08:54:43;99382.84;;;0.63;100.00
6413;BME280;3239;48.714;9.472;2023-01-29T08:57:09;99377.81;;;0.65;100.00
6413;BME280;3239;48.714;9.472;2023-01-29T08:59:35;99383.19;;;0.65;100.00
6413;BME280;3239;48.714;9.472;2023-01-29T09:02:00;99379.97;;;0.70;100.00
6413;BME280;3239;48.714;9.472;2023-01-29T09:04:26;99387.53;;;0.75;100.00
6413;BME280;3239;48.714;9.472;2023-01-29T09:06:52;99395.63;;;0.75;100.00
6413;BME280;3239;48.714;9.472;2023-01-29T09:09:18;99392.94;;;0.75;100.00
6413;BME280;3239;48.714;9.472;2023-01-29T09:11:43;99400.56;;;0.76;100.00
6413;BME280;3239;48.714;9.472;2023-01-29T09:14:09;99389.91;;;0.73;100.00
6413;BME280;3239;48.714;9.472;2023-01-29T09:16:36;99392.72;;;0.82;100.00
6413;BME280;3239;48.714;9.472;2023-01-29T09:19:02;99383.66;;;0.76;100.00
6413;BME280;3239;48.714;9.472;2023-01-29T09:21:28;99391.22;;;0.81;100.00
6413;BME280;3239;48.714;9.472;2023-01-29T09:23:53;99376.84;;;0.84;100.00
6413;BME280;3239;48.714;9.472;2023-01-29T09:26:19;99390.91;;;0.91;100.00
6413;BME280;3239;48.714;9.472;2023-01-29T09:28:45;99392.75;;;0.94;100.00
6413;BME280;3239;48.714;9.472;2023-01-29T09:31:10;99387.16;;;1.01;100.00
6413;BME280;3239;48.714;9.472;2023-01-29T09:33:36;99376.25;;;0.92;100.00
6413;BME280;3239;48.714;9.472;2023-01-29T09:36:03;99378.53;;;0.53;100.00
6413;BME280;3239;48.714;9.472;2023-01-29T09:38:29;99383.72;;;0.60;100.00
6413;BME280;3239;48.714;9.472;2023-01-29T09:41:05;99387.66;;;0.71;100.00
6413;BME280;3239;48.714;9.472;2023-01-29T09:43:47;99381.66;;;0.92;100.00
6413;BME280;3239;48.714;9.472;2023-01-29T09:46:29;99376.66;;;0.78;100.00
6413;BME280;3239;48.714;9.472;2023-01-29T09:49:09;99379.56;;;0.84;100.00
6413;BME280;3239;48.714;9.472;2023-01-29T09:51:42;99382.50;;;0.89;100.00
6413;BME280;3239;48.714;9.472;2023-01-29T09:54:34;99367.78;;;0.78;100.00
6413;BME280;3239;48.714;9.472;2023-01-29T09:57:12;99362.06;;;0.63;100.00
6413;BME280;3239;48.714;9.472;2023-01-29T09:59:42;99358.16;;;0.64;100.00
6413;BME280;3239;48.714;9.472;2023-01-29T10:11:35;99339.78;;;1.25;100.00
6413;BME280;3239;48.714;9.472;2023-01-29T10:14:35;99321.19;;;1.27;100.00
6413;BME280;3239;48.714;9.472;2023-01-29T10:22:42;99304.69;;;1.13;100.00
6413;BME280;3239;48.714;9.472;2023-01-29T10:25:14;99300.16;;;0.97;100.00
6413;BME280;3239;48.714;9.472;2023-01-29T10:27:46;99294.19;;;1.02;100.00
6413;BME280;3239;48.714;9.472;2023-01-29T10:30:40;99289.91;;;0.92;100.00
6413;BME280;3239;48.714;9.472;2023-01-29T10:33:55;99293.78;;;1.04;100.00
6413;BME280;3239;48.714;9.472;2023-01-29T10:36:44;99297.66;;;1.28;100.00
6413;BME280;3239;48.714;9.472;2023-01-29T10:39:21;99303.75;;;1.53;100.00
6413;BME280;3239;48.714;9.472;2023-01-29T10:42:23;99308.97;;;1.48;100.00
6413;BME280;3239;48.714;9.472;2023-01-29T10:45:15;99306.00;;;0.96;100.00
6413;BME280;3239;48.714;9.472;2023-01-29T10:51:25;99309.81;;;1.45;100.00
6413;BME280;3239;48.714;9.472;2023-01-29T10:54:11;99311.13;;;1.40;100.00
6413;BME280;3239;48.714;9.472;2023-01-29T10:57:01;99297.13;;;0.95;100.00
6413;BME280;3239;48.714;9.472;2023-01-29T10:59:51;99295.94;;;1.21;100.00
6413;BME280;3239;48.714;9.472;2023-01-29T11:02:20;99295.81;;;1.00;100.00
6413;BME280;3239;48.714;9.472;2023-01-29T11:04:47;99289.81;;;0.96;100.00
6413;BME280;3239;48.714;9.472;2023-01-29T11:07:16;99291.31;;;1.09;100.00
6413;BME280;3239;48.714;9.472;2023-01-29T11:12:18;99302.84;;;1.22;100.00
6413;BME280;3239;48.714;9.472;2023-01-29T11:15:27;99300.50;;;1.58;100.00
6413;BME280;3239;48.714;9.472;2023-01-29T11:18:12;99286.28;;;1.45;100.00
6413;BME280;3239;48.714;9.472;2023-01-29T11:20:42;99296.41;;;1.66;100.00
6413;BME280;3239;48.714;9.472;2023-01-29T11:23:27;99290.56;;;1.89;100.00
6413;BME280;3239;48.714;9.472;2023-01-29T11:25:54;99287.13;;;2.10;100.00
6413;BME280;3239;48.714;9.472;2023-01-29T11:28:44;99286.13;;;2.17;100.00
6413;BME280;3239;48.714;9.472;2023-01-29T11:31:26;99279.66;;;2.14;100.00
6413;BME280;3239;48.714;9.472;2023-01-29T11:34:12;99277.84;;;2.33;100.00
6413;BME280;3239;48.714;9.472;2023-01-29T11:36:39;99277.06;;;2.54;100.00
6413;BME280;3239;48.714;9.472;2023-01-29T11:41:48;99283.94;;;2.85;100.00
6413;BME280;3239;48.714;9.472;2023-01-29T11:44:34;99263.91;;;2.43;100.00
6413;BME280;3239;48.714;9.472;2023-01-29T11:47:26;99253.31;;;2.27;100.00
6413;BME280;3239;48.714;9.472;2023-01-29T11:49:59;99258.03;;;1.93;100.00
6413;BME280;3239;48.714;9.472;2023-01-29T11:52:35;99244.31;;;2.09;100.00
6413;BME280;3239;48.714;9.472;2023-01-29T11:55:16;99236.22;;;2.09;100.00
6413;BME280;3239;48.714;9.472;2023-01-29T11:57:50;99238.47;;;1.89;100.00
6413;BME280;3239;48.714;9.472;2023-01-29T12:00:23;99235.13;;;1.63;100.00
6413;BME280;3239;48.714;9.472;2023-01-29T12:03:13;99235.34;;;1.69;100.00
6413;BME280;3239;48.714;9.472;2023-01-29T12:05:57;99240.91;;;2.17;100.00
6413;BME280;3239;48.714;9.472;2023-01-29T12:08:25;99231.31;;;2.16;100.00
6413;BME280;3239;48.714;9.472;2023-01-29T12:13:37;99217.75;;;1.86;100.00
6413;BME280;3239;48.714;9.472;2023-01-29T12:16:52;99226.25;;;2.27;100.00
6413;BME280;3239;48.714;9.472;2023-01-29T12:19:43;99219.94;;;3.00;100.00
6413;BME280;3239;48.714;9.472;2023-01-29T12:22:23;99200.13;;;3.21;100.00
6413;BME280;3239;48.714;9.472;2023-01-29T12:24:57;99192.22;;;4.31;100.00
6413;BME280;3239;48.714;9.472;2023-01-29T12:27:47;99170.09;;;4.56;100.00
6413;BME280;3239;48.714;9.472;2023-01-29T12:30:41;99162.81;;;4.95;100.00
6413;BME280;3239;48.714;9.472;2023-01-29T12:39:01;99104.81;;;6.86;100.00
6413;BME280;3239;48.714;9.472;2023-01-29T12:42:02;99104.25;;;5.70;100.00
6413;BME280;3239;48.714;9.472;2023-01-29T12:44:43;99111.00;;;7.47;100.00
6413;BME280;3239;48.714;9.472;2023-01-29T12:47:31;99097.94;;;7.56;100.00
6413;BME280;3239;48.714;9.472;2023-01-29T12:51:03;99084.63;;;8.57;90.10
6413;BME280;3239;48.714;9.472;2023-01-29T12:53:28;99080.81;;;4.91;100.00
6413;BME280;3239;48.714;9.472;2023-01-29T12:56:04;99087.53;;;4.16;100.00
6413;BME280;3239;48.714;9.472;2023-01-29T12:58:46;99081.13;;;4.60;100.00
6413;BME280;3239;48.714;9.472;2023-01-29T13:01:33;99077.28;;;3.78;100.00
6413;BME280;3239;48.714;9.472;2023-01-29T13:07:14;99066.19;;;5.55;100.00
6413;BME280;3239;48.714;9.472;2023-01-29T13:09:45;99077.56;;;5.97;100.00
6413;BME280;3239;48.714;9.472;2023-01-29T13:12:38;99073.84;;;6.29;100.00
6413;BME280;3239;48.714;9.472;2023-01-29T13:15:40;99073.50;;;6.76;100.00
6413;BME280;3239;48.714;9.472;2023-01-29T13:21:00;99061.03;;;4.43;100.00
6413;BME280;3239;48.714;9.472;2023-01-29T13:23:38;99058.38;;;4.81;100.00
6413;BME280;3239;48.714;9.472;2023-01-29T13:26:11;99063.69;;;4.29;100.00
6413;BME280;3239;48.714;9.472;2023-01-29T13:28:38;99059.91;;;3.43;100.00
6413;BME280;3239;48.714;9.472;2023-01-29T13:31:33;99061.66;;;3.64;100.00
6413;BME280;3239;48.714;9.472;2023-01-29T13:36:55;99069.66;;;5.41;100.00
6413;BME280;3239;48.714;9.472;2023-01-29T13:39:35;99060.41;;;4.72;100.00
6413;BME280;3239;48.714;9.472;2023-01-29T13:42:42;99059.84;;;5.06;100.00
6413;BME280;3239;48.714;9.472;2023-01-29T13:45:56;99061.69;;;5.96;100.00
6413;BME280;3239;48.714;9.472;2023-01-29T13:48:30;99054.78;;;4.99;100.00
6413;BME280;3239;48.714;9.472;2023-01-29T13:51:00;99062.44;;;6.45;100.00
6413;BME280;3239;48.714;9.472;2023-01-29T13:53:38;99051.19;;;4.78;100.00
6413;BME280;3239;48.714;9.472;2023-01-29T13:59:03;99054.06;;;5.13;100.00
6413;BME280;3239;48.714;9.472;2023-01-29T14:04:25;99059.28;;;3.99;100.00
6413;BME280;3239;48.714;9.472;2023-01-29T14:06:55;99058.09;;;4.56;100.00
6413;BME280;3239;48.714;9.472;2023-01-29T14:17:21;99080.97;;;2.76;100.00
6413;BME280;3239;48.714;9.472;2023-01-29T14:20:02;99086.97;;;2.71;100.00
6413;BME280;3239;48.714;9.472;2023-01-29T14:22:29;99082.38;;;3.17;100.00
6413;BME280;3239;48.714;9.472;2023-01-29T14:25:00;99077.22;;;3.10;100.00
6413;BME280;3239;48.714;9.472;2023-01-29T14:27:28;99075.72;;;3.00;100.00
6413;BME280;3239;48.714;9.472;2023-01-29T14:30:08;99080.53;;;3.23;100.00
6413;BME280;3239;48.714;9.472;2023-01-29T14:32:46;99084.91;;;3.20;100.00
6413;BME280;3239;48.714;9.472;2023-01-29T14:35:21;99074.53;;;3.01;100.00
6413;BME280;3239;48.714;9.472;2023-01-29T14:37:51;99076.78;;;2.84;100.00
6413;BME280;3239;48.714;9.472;2023-01-29T14:43:08;99078.72;;;2.93;100.00
6413;BME280;3239;48.714;9.472;2023-01-29T14:45:48;99081.97;;;2.52;100.00
6413;BME280;3239;48.714;9.472;2023-01-29T14:51:13;99085.34;;;2.92;100.00
6413;BME280;3239;48.714;9.472;2023-01-29T14:54:05;99082.63;;;2.83;100.00
6413;BME280;3239;48.714;9.472;2023-01-29T14:56:53;99080.34;;;2.63;100.00
6413;BME280;3239;48.714;9.472;2023-01-29T15:00:00;99084.91;;;2.93;100.00
6413;BME280;3239;48.714;9.472;2023-01-29T15:02:43;99071.22;;;3.06;100.00
6413;BME280;3239;48.714;9.472;2023-01-29T15:05:34;99066.13;;;3.08;100.00
6413;BME280;3239;48.714;9.472;2023-01-29T15:08:31;99060.84;;;3.13;100.00
6413;BME280;3239;48.714;9.472;2023-01-29T15:11:16;99060.50;;;3.38;100.00
6413;BME280;3239;48.714;9.472;2023-01-29T15:14:30;99061.00;;;3.28;100.00
6413;BME280;3239;48.714;9.472;2023-01-29T15:20:33;99053.69;;;3.61;100.00
6413;BME280;3239;48.714;9.472;2023-01-29T15:23:25;99055.00;;;3.83;100.00
6413;BME280;3239;48.714;9.472;2023-01-29T15:26:10;99050.88;;;3.97;100.00
6413;BME280;3239;48.714;9.472;2023-01-29T15:28:39;99041.16;;;3.22;100.00
6413;BME280;3239;48.714;9.472;2023-01-29T15:31:11;99049.34;;;3.45;100.00
6413;BME280;3239;48.714;9.472;2023-01-29T15:33:41;99052.31;;;3.65;100.00
6413;BME280;3239;48.714;9.472;2023-01-29T15:36:27;99051.50;;;3.92;100.00
6413;BME280;3239;48.714;9.472;2023-01-29T15:41:44;99060.53;;;3.20;100.00
6413;BME280;3239;48.714;9.472;2023-01-29T15:44:17;99053.44;;;3.41;100.00
6413;BME280;3239;48.714;9.472;2023-01-29T15:46:58;99062.75;;;3.49;100.00
6413;BME280;3239;48.714;9.472;2023-01-29T15:49:38;99064.16;;;3.35;100.00
6413;BME280;3239;48.714;9.472;2023-01-29T15:52:27;99057.25;;;4.17;100.00
6413;BME280;3239;48.714;9.472;2023-01-29T15:54:56;99053.88;;;3.99;100.00
6413;BME280;3239;48.714;9.472;2023-01-29T15:57:40;99043.53;;;3.38;100.00
6413;BME280;3239;48.714;9.472;2023-01-29T16:00:23;99046.78;;;3.51;100.00